createdAt,value
2019-03-22T00:02:11.061Z,14.70
2019-03-22T00:04:37.215Z,14.70
2019-03-22T00:07:03.387Z,14.70
2019-03-22T00:09:29.550Z,14.70
2019-03-22T00:11:55.707Z,14.80
2019-03-22T00:14:21.870Z,14.70
2019-03-22T00:16:48.024Z,14.70
2019-03-22T00:19:14.190Z,14.70
2019-03-22T00:21:40.345Z,14.70
2019-03-22T00:24:06.523Z,14.70
2019-03-22T00:26:32.734Z,14.70
2019-03-22T00:28:58.899Z,14.70
2019-03-22T00:31:25.052Z,14.70
2019-03-22T00:33:51.218Z,14.70
2019-03-22T00:36:17.370Z,14.70
2019-03-22T00:38:43.569Z,14.70
2019-03-22T00:41:09.732Z,14.70
2019-03-22T00:43:35.901Z,14.70
2019-03-22T00:46:02.049Z,14.70
2019-03-22T00:48:28.221Z,14.70
2019-03-22T00:50:54.371Z,14.70
2019-03-22T00:53:20.541Z,14.60
2019-03-22T00:55:46.701Z,14.70
2019-03-22T00:58:12.877Z,14.70
2019-03-22T01:00:39.022Z,14.60
2019-03-22T01:03:05.169Z,14.70
2019-03-22T01:05:31.322Z,14.70
2019-03-22T01:07:57.470Z,14.70
2019-03-22T01:10:23.629Z,14.70
2019-03-22T01:12:49.776Z,14.70
2019-03-22T01:15:15.930Z,14.70
2019-03-22T01:17:42.083Z,14.70
2019-03-22T01:20:08.946Z,14.70
2019-03-22T01:22:35.096Z,14.70
2019-03-22T01:25:01.250Z,14.70
2019-03-22T01:27:27.399Z,14.70
2019-03-22T01:29:53.557Z,14.70
2019-03-22T01:32:19.711Z,14.70
2019-03-22T01:34:45.875Z,14.70
2019-03-22T01:37:12.025Z,14.70
2019-03-22T01:39:38.177Z,14.70
2019-03-22T01:42:04.336Z,14.60
2019-03-22T01:44:30.484Z,14.60
2019-03-22T01:46:56.636Z,14.70
2019-03-22T01:49:22.798Z,14.70
2019-03-22T01:51:49.709Z,14.70
2019-03-22T01:54:15.878Z,14.70
2019-03-22T01:56:42.029Z,14.70
2019-03-22T01:59:08.177Z,14.70
2019-03-22T02:01:34.340Z,14.70
2019-03-22T02:04:00.526Z,14.70
2019-03-22T02:06:26.686Z,14.70
2019-03-22T02:08:52.844Z,14.70
2019-03-22T02:11:19.000Z,14.70
2019-03-22T02:13:45.144Z,14.70
2019-03-22T02:16:11.304Z,14.70
2019-03-22T02:18:38.216Z,14.70
2019-03-22T02:21:04.380Z,14.70
2019-03-22T02:23:30.529Z,14.70
2019-03-22T02:25:56.856Z,14.60
2019-03-22T02:28:23.013Z,14.60
2019-03-22T02:30:49.180Z,14.60
2019-03-22T02:33:15.332Z,14.70
2019-03-22T02:35:41.501Z,14.70
2019-03-22T02:38:07.648Z,14.70
2019-03-22T02:40:33.991Z,14.60
2019-03-22T02:43:00.902Z,14.60
2019-03-22T02:45:27.065Z,14.60
2019-03-22T02:47:53.222Z,14.60
2019-03-22T02:50:20.306Z,14.60
2019-03-22T02:52:45.579Z,14.60
2019-03-22T02:55:11.735Z,14.60
2019-03-22T02:57:37.880Z,14.60
2019-03-22T03:00:04.056Z,14.60
2019-03-22T03:02:30.217Z,14.60
2019-03-22T03:04:56.368Z,14.60
2019-03-22T03:07:22.525Z,14.70
2019-03-22T03:09:48.675Z,14.70
2019-03-22T03:12:14.830Z,14.60
2019-03-22T03:14:40.989Z,14.70
2019-03-22T03:17:07.147Z,14.60
2019-03-22T03:19:33.297Z,14.60
2019-03-22T03:21:59.458Z,14.60
2019-03-22T03:24:26.413Z,14.60
2019-03-22T03:26:52.572Z,14.60
2019-03-22T03:29:18.726Z,14.60
2019-03-22T03:31:44.908Z,14.60
2019-03-22T03:34:11.222Z,14.60
2019-03-22T03:36:37.411Z,14.50
2019-03-22T03:39:03.738Z,14.60
2019-03-22T03:41:29.921Z,14.60
2019-03-22T03:43:56.078Z,14.60
2019-03-22T03:46:22.245Z,14.60
2019-03-22T03:48:48.398Z,14.50
2019-03-22T03:51:14.541Z,14.50
2019-03-22T03:53:40.697Z,14.50
2019-03-22T03:56:06.845Z,14.60
2019-03-22T03:58:33.010Z,14.50
2019-03-22T04:00:59.157Z,14.50
2019-03-22T04:03:25.323Z,14.60
2019-03-22T04:05:51.478Z,14.60
2019-03-22T04:08:17.625Z,14.50
2019-03-22T04:10:43.781Z,14.60
2019-03-22T04:13:09.936Z,14.60
2019-03-22T04:15:36.085Z,14.60
2019-03-22T04:18:02.235Z,14.50
2019-03-22T04:20:28.386Z,14.60
2019-03-22T04:22:54.541Z,14.60
2019-03-22T04:25:20.704Z,14.50
2019-03-22T04:27:46.930Z,14.50
2019-03-22T04:30:13.071Z,14.50
2019-03-22T04:32:39.227Z,14.60
2019-03-22T04:35:05.393Z,14.60
2019-03-22T04:37:31.548Z,14.50
2019-03-22T04:39:57.694Z,14.50
2019-03-22T04:42:23.903Z,14.50
2019-03-22T04:44:50.045Z,14.50
2019-03-22T04:47:16.206Z,14.50
2019-03-22T04:49:43.125Z,14.50
2019-03-22T04:52:09.317Z,14.50
2019-03-22T04:54:35.461Z,14.50
2019-03-22T04:57:01.615Z,14.50
2019-03-22T04:59:29.564Z,14.50
2019-03-22T05:01:55.705Z,14.50
2019-03-22T05:04:21.856Z,14.50
2019-03-22T05:06:48.009Z,14.50
2019-03-22T05:09:14.149Z,14.50
2019-03-22T05:11:40.299Z,14.50
2019-03-22T05:14:06.469Z,14.50
2019-03-22T05:16:32.621Z,14.40
2019-03-22T05:18:58.817Z,14.50
2019-03-22T05:21:25.720Z,14.50
2019-03-22T05:23:51.892Z,14.50
2019-03-22T05:26:18.047Z,14.50
2019-03-22T05:28:44.217Z,14.50
2019-03-22T05:31:10.364Z,14.50
2019-03-22T05:33:36.538Z,14.50
2019-03-22T05:36:02.686Z,14.50
2019-03-22T05:38:30.892Z,14.50
2019-03-22T05:40:57.042Z,14.50
2019-03-22T05:43:23.208Z,14.50
2019-03-22T05:45:49.352Z,14.50
2019-03-22T05:48:16.282Z,14.40
2019-03-22T05:50:42.426Z,14.50
2019-03-22T05:53:08.590Z,14.50
2019-03-22T05:55:34.761Z,14.40
2019-03-22T05:58:00.910Z,14.50
2019-03-22T06:00:27.833Z,14.40
2019-03-22T06:02:53.985Z,14.40
2019-03-22T06:05:20.142Z,14.50
2019-03-22T06:07:46.299Z,14.40
2019-03-22T06:10:12.449Z,14.50
2019-03-22T06:12:39.369Z,14.50
2019-03-22T06:15:05.518Z,14.50
2019-03-22T06:17:31.707Z,14.50
2019-03-22T06:19:57.845Z,14.50
2019-03-22T06:22:23.994Z,14.50
2019-03-22T06:24:50.156Z,14.50
2019-03-22T06:27:16.312Z,14.50
2019-03-22T06:29:53.366Z,14.50
2019-03-22T06:32:08.666Z,14.50
2019-03-22T06:34:34.851Z,14.50
2019-03-22T06:37:00.996Z,14.40
2019-03-22T06:39:27.140Z,14.50
2019-03-22T06:41:53.284Z,14.50
2019-03-22T06:44:19.449Z,14.40
2019-03-22T06:46:45.607Z,14.50
2019-03-22T06:49:11.762Z,14.50
2019-03-22T06:51:37.914Z,14.50
2019-03-22T06:54:04.825Z,14.50
2019-03-22T06:56:30.971Z,14.50
2019-03-22T06:58:57.126Z,14.50
2019-03-22T07:01:23.297Z,14.50
2019-03-22T07:03:49.853Z,14.50
2019-03-22T07:06:16.014Z,14.50
2019-03-22T07:08:42.170Z,14.50
2019-03-22T07:11:08.333Z,14.50
2019-03-22T07:13:34.516Z,14.50
2019-03-22T07:16:00.692Z,14.50
2019-03-22T07:18:26.843Z,14.50
2019-03-22T07:20:53.013Z,14.60
2019-03-22T07:23:19.160Z,14.50
2019-03-22T07:25:45.332Z,14.50
2019-03-22T07:28:11.481Z,14.60
2019-03-22T07:30:37.667Z,14.60
2019-03-22T07:33:03.829Z,14.60
2019-03-22T07:35:31.779Z,14.60
2019-03-22T07:37:57.933Z,14.60
2019-03-22T07:40:24.091Z,14.60
2019-03-22T07:42:50.240Z,14.60
2019-03-22T07:45:16.399Z,14.60
2019-03-22T07:47:42.545Z,14.60
2019-03-22T07:50:08.692Z,14.60
2019-03-22T07:52:34.848Z,14.60
2019-03-22T07:55:01.002Z,14.60
2019-03-22T07:57:27.168Z,14.60
2019-03-22T07:59:53.314Z,14.60
2019-03-22T08:02:19.460Z,14.60
2019-03-22T08:04:45.611Z,14.60
2019-03-22T08:07:11.774Z,14.60
2019-03-22T08:09:37.974Z,14.60
2019-03-22T08:12:04.139Z,14.60
2019-03-22T08:14:30.292Z,14.60
2019-03-22T08:16:56.459Z,14.60
2019-03-22T08:19:22.618Z,14.60
2019-03-22T08:21:48.786Z,14.60
2019-03-22T08:24:14.959Z,14.60
2019-03-22T08:26:41.316Z,14.60
2019-03-22T08:29:07.473Z,14.60
2019-03-22T08:31:33.636Z,14.60
2019-03-22T08:33:59.810Z,14.60
2019-03-22T08:36:26.152Z,14.60
2019-03-22T08:38:52.453Z,14.60
2019-03-22T08:41:18.614Z,14.60
2019-03-22T08:43:44.783Z,14.60
2019-03-22T08:46:10.994Z,14.60
2019-03-22T08:48:37.177Z,14.60
2019-03-22T08:51:03.334Z,14.60
2019-03-22T08:53:29.483Z,14.60
2019-03-22T08:55:55.634Z,14.60
2019-03-22T08:58:21.792Z,14.60
2019-03-22T09:00:57.241Z,14.60
2019-03-22T09:03:14.139Z,14.60
2019-03-22T09:05:40.444Z,14.50
2019-03-22T09:08:07.361Z,14.60
2019-03-22T09:10:33.527Z,14.60
2019-03-22T09:12:59.892Z,14.60
2019-03-22T09:15:26.048Z,14.70
2019-03-22T09:17:52.212Z,14.60
2019-03-22T09:20:18.390Z,14.60
2019-03-22T09:22:44.541Z,14.70
2019-03-22T09:25:10.697Z,14.60
2019-03-22T09:27:36.944Z,14.70
2019-03-22T09:30:03.827Z,14.70
2019-03-22T09:32:30.143Z,14.60
2019-03-22T09:34:56.292Z,14.70
2019-03-22T09:37:22.488Z,14.70
2019-03-22T09:39:48.835Z,14.70
2019-03-22T09:42:15.028Z,14.70
2019-03-22T09:44:45.116Z,14.70
2019-03-22T09:47:07.373Z,14.70
2019-03-22T09:49:33.564Z,14.70
2019-03-22T09:51:59.713Z,14.70
2019-03-22T09:54:25.865Z,14.70
2019-03-22T09:56:52.024Z,14.80
2019-03-22T09:59:18.170Z,14.70
2019-03-22T10:01:44.321Z,14.70
2019-03-22T10:04:10.475Z,14.80
2019-03-22T10:06:36.643Z,14.80
2019-03-22T10:09:05.427Z,14.80
2019-03-22T10:11:29.044Z,14.80
2019-03-22T10:13:55.214Z,14.80
2019-03-22T10:16:21.358Z,14.80
2019-03-22T10:18:47.602Z,14.80
2019-03-22T10:21:22.511Z,14.80
2019-03-22T10:23:39.913Z,14.80
2019-03-22T10:26:06.067Z,14.80
2019-03-22T10:28:32.357Z,14.80
2019-03-22T10:30:58.411Z,14.80
2019-03-22T10:33:25.353Z,14.80
2019-03-22T10:35:51.502Z,14.80
2019-03-22T10:38:30.694Z,14.80
2019-03-22T10:40:43.869Z,14.80
2019-03-22T10:43:10.021Z,14.80
2019-03-22T10:45:36.247Z,14.90
2019-03-22T10:48:02.397Z,14.80
2019-03-22T10:50:28.546Z,14.90
2019-03-22T10:52:54.743Z,14.80
2019-03-22T10:55:29.589Z,14.90
2019-03-22T10:57:47.078Z,14.90
2019-03-22T11:00:13.226Z,14.90
2019-03-22T11:02:39.377Z,14.90
2019-03-22T11:05:06.296Z,14.90
2019-03-22T11:07:32.454Z,14.90
2019-03-22T11:09:58.606Z,14.90
2019-03-22T11:12:25.065Z,14.90
2019-03-22T11:14:51.223Z,14.90
2019-03-22T11:17:17.379Z,14.90
2019-03-22T11:19:43.521Z,14.90
2019-03-22T11:22:09.669Z,14.90
2019-03-22T11:24:35.820Z,14.90
2019-03-22T11:27:01.976Z,15.00
2019-03-22T11:29:28.137Z,14.90
2019-03-22T11:31:54.284Z,14.90
2019-03-22T11:34:20.444Z,14.90
2019-03-22T11:36:46.590Z,15.00
2019-03-22T11:39:15.859Z,15.00
2019-03-22T11:41:39.705Z,14.90
2019-03-22T11:44:05.871Z,15.00
2019-03-22T11:46:32.027Z,15.00
2019-03-22T11:48:58.197Z,15.00
2019-03-22T11:51:24.352Z,15.00
2019-03-22T11:53:51.261Z,15.00
2019-03-22T11:56:17.416Z,15.00
2019-03-22T11:58:43.572Z,15.00
2019-03-22T12:01:19.100Z,15.00
2019-03-22T12:03:35.905Z,15.00
2019-03-22T12:06:02.831Z,15.00
2019-03-22T12:08:28.985Z,15.00
2019-03-22T12:10:55.132Z,15.00
2019-03-22T12:13:21.280Z,15.10
2019-03-22T12:15:47.425Z,15.00
2019-03-22T12:18:13.605Z,15.10
2019-03-22T12:20:39.750Z,15.10
2019-03-22T12:23:05.906Z,15.10
2019-03-22T12:25:32.077Z,15.10
2019-03-22T12:27:58.245Z,15.10
2019-03-22T12:30:24.403Z,15.10
2019-03-22T12:32:50.558Z,15.10
2019-03-22T12:35:16.726Z,15.10
2019-03-22T12:37:42.872Z,15.10
2019-03-22T12:40:09.043Z,15.10
2019-03-22T12:42:35.200Z,15.10
2019-03-22T12:45:01.357Z,15.10
2019-03-22T12:47:27.499Z,15.10
2019-03-22T12:49:53.644Z,15.10
2019-03-22T12:52:19.793Z,15.10
2019-03-22T12:54:45.953Z,15.10
2019-03-22T12:57:12.105Z,15.10
2019-03-22T12:59:38.253Z,15.10
2019-03-22T13:02:04.405Z,15.10
2019-03-22T13:04:30.561Z,15.20
2019-03-22T13:06:56.710Z,15.10
2019-03-22T13:09:22.860Z,15.10
2019-03-22T13:11:49.781Z,15.20
2019-03-22T13:14:15.929Z,15.20
2019-03-22T13:16:42.080Z,15.20
2019-03-22T13:19:08.232Z,15.20
2019-03-22T13:21:34.386Z,15.20
2019-03-22T13:24:00.540Z,15.20
2019-03-22T13:26:26.687Z,15.20
2019-03-22T13:28:52.828Z,15.20
2019-03-22T13:31:18.980Z,15.20
2019-03-22T13:33:45.129Z,15.20
2019-03-22T13:36:11.295Z,15.20
2019-03-22T13:38:37.451Z,15.20
2019-03-22T13:41:03.612Z,15.20
2019-03-22T13:43:29.758Z,15.20
2019-03-22T13:45:55.930Z,15.20
2019-03-22T13:48:22.078Z,15.20
2019-03-22T13:50:49.018Z,15.20
2019-03-22T13:53:15.168Z,15.20
2019-03-22T13:55:41.326Z,15.30
2019-03-22T13:58:07.509Z,15.20
2019-03-22T14:00:33.664Z,15.30
2019-03-22T14:03:03.047Z,15.30
2019-03-22T14:05:26.783Z,15.30
2019-03-22T14:07:52.926Z,15.30
2019-03-22T14:10:19.072Z,15.30
2019-03-22T14:12:45.228Z,15.30
2019-03-22T14:15:12.146Z,15.30
2019-03-22T14:17:38.290Z,15.30
2019-03-22T14:20:11.102Z,15.30
2019-03-22T14:22:30.626Z,15.30
2019-03-22T14:24:56.773Z,15.30
2019-03-22T14:27:23.689Z,15.30
2019-03-22T14:29:49.837Z,15.30
2019-03-22T14:32:15.985Z,15.30
2019-03-22T14:34:42.329Z,15.30
2019-03-22T14:37:08.494Z,15.30
2019-03-22T14:39:34.643Z,15.40
2019-03-22T14:42:00.800Z,15.30
2019-03-22T14:44:28.293Z,15.30
2019-03-22T14:46:53.162Z,15.30
2019-03-22T14:49:19.309Z,15.40
2019-03-22T14:51:45.501Z,15.40
2019-03-22T14:54:11.652Z,15.40
2019-03-22T14:56:37.804Z,15.40
2019-03-22T14:59:03.958Z,15.40
2019-03-22T15:01:30.106Z,15.40
2019-03-22T15:03:56.255Z,15.40
2019-03-22T15:06:22.405Z,15.40
2019-03-22T15:08:48.556Z,15.40
2019-03-22T15:11:14.929Z,15.40
2019-03-22T15:13:41.082Z,15.40
2019-03-22T15:16:07.237Z,15.40
2019-03-22T15:18:33.388Z,15.40
2019-03-22T15:21:00.298Z,15.40
2019-03-22T15:23:26.448Z,15.40
2019-03-22T15:25:52.597Z,15.40
2019-03-22T15:28:18.752Z,15.40
2019-03-22T15:30:44.907Z,15.40
2019-03-22T15:33:11.057Z,15.50
2019-03-22T15:35:37.209Z,15.50
2019-03-22T15:38:03.377Z,15.50
2019-03-22T15:40:29.523Z,15.50
2019-03-22T15:42:55.693Z,15.50
2019-03-22T15:45:21.853Z,15.50
2019-03-22T15:47:48.021Z,15.50
2019-03-22T15:50:14.165Z,15.50
2019-03-22T15:52:40.337Z,15.50
2019-03-22T15:55:06.490Z,15.50
2019-03-22T15:57:32.638Z,15.50
2019-03-22T15:59:58.794Z,15.50
2019-03-22T16:02:24.966Z,15.50
2019-03-22T16:04:51.114Z,15.60
2019-03-22T16:07:17.265Z,15.60
2019-03-22T16:09:43.412Z,15.60
2019-03-22T16:12:09.574Z,15.60
2019-03-22T16:14:36.487Z,15.60
2019-03-22T16:17:02.635Z,15.60
2019-03-22T16:19:28.792Z,15.60
2019-03-22T16:21:54.937Z,15.60
2019-03-22T16:24:21.081Z,15.60
2019-03-22T16:26:47.230Z,15.60
2019-03-22T16:29:13.372Z,15.60
2019-03-22T16:31:39.533Z,15.60
2019-03-22T16:34:05.692Z,15.60
2019-03-22T16:36:31.845Z,15.60
2019-03-22T16:38:58.769Z,15.60
2019-03-22T16:41:24.921Z,15.60
2019-03-22T16:43:51.085Z,15.60
2019-03-22T16:46:17.246Z,15.60
2019-03-22T16:48:43.409Z,15.70
2019-03-22T16:51:09.564Z,15.70
2019-03-22T16:53:35.734Z,15.70
2019-03-22T16:56:01.887Z,15.70
2019-03-22T16:58:28.060Z,15.70
2019-03-22T17:00:54.207Z,15.70
2019-03-22T17:03:20.358Z,15.60
2019-03-22T17:05:47.315Z,15.70
2019-03-22T17:08:13.467Z,15.70
2019-03-22T17:10:39.624Z,15.70
2019-03-22T17:13:05.802Z,15.70
2019-03-22T17:15:31.949Z,15.70
2019-03-22T17:17:58.100Z,15.70
2019-03-22T17:20:24.257Z,15.70
2019-03-22T17:22:50.400Z,15.70
2019-03-22T17:25:16.555Z,15.70
2019-03-22T17:27:42.705Z,15.70
2019-03-22T17:30:08.856Z,15.70
2019-03-22T17:32:35.776Z,15.70
2019-03-22T17:35:01.922Z,15.70
2019-03-22T17:37:28.095Z,15.70
2019-03-22T17:39:54.241Z,15.70
2019-03-22T17:42:20.390Z,15.70
2019-03-22T17:44:47.312Z,15.70
2019-03-22T17:47:13.460Z,15.70
2019-03-22T17:49:48.133Z,15.70
2019-03-22T17:52:09.597Z,15.70
2019-03-22T17:54:35.761Z,15.70
2019-03-22T17:57:01.907Z,15.70
2019-03-22T17:59:28.062Z,15.70
2019-03-22T18:01:54.204Z,15.70
2019-03-22T18:04:24.057Z,15.70
2019-03-22T18:06:46.549Z,15.70
2019-03-22T18:09:12.703Z,15.70
2019-03-22T18:11:38.850Z,15.70
2019-03-22T18:14:05.014Z,15.70
2019-03-22T18:16:31.894Z,15.70
2019-03-22T18:18:58.049Z,15.70
2019-03-22T18:21:24.196Z,15.70
2019-03-22T18:23:50.346Z,15.70
2019-03-22T18:26:17.261Z,15.70
2019-03-22T18:28:43.431Z,15.70
2019-03-22T18:31:09.572Z,15.70
2019-03-22T18:33:35.728Z,15.70
2019-03-22T18:36:01.936Z,15.70
2019-03-22T18:38:28.089Z,15.70
2019-03-22T18:40:54.260Z,15.70
2019-03-22T18:43:20.412Z,15.70
2019-03-22T18:45:46.740Z,15.70
2019-03-22T18:48:12.888Z,15.70
2019-03-22T18:50:39.041Z,15.70
2019-03-22T18:53:05.206Z,15.70
2019-03-22T18:55:31.358Z,15.70
2019-03-22T18:57:57.507Z,15.70
2019-03-22T19:00:24.429Z,15.70
2019-03-22T19:02:50.583Z,15.70
2019-03-22T19:05:16.732Z,15.70
2019-03-22T19:07:42.877Z,15.70
2019-03-22T19:10:09.039Z,15.70
2019-03-22T19:12:35.957Z,15.70
2019-03-22T19:15:02.107Z,15.70
2019-03-22T19:17:28.263Z,15.70
2019-03-22T19:19:54.409Z,15.70
2019-03-22T19:22:20.562Z,15.70
2019-03-22T19:24:49.504Z,15.70
2019-03-22T19:27:15.651Z,15.70
2019-03-22T19:29:41.800Z,15.70
2019-03-22T19:32:13.377Z,15.70
2019-03-22T19:34:34.142Z,15.70
2019-03-22T19:37:00.321Z,15.70
2019-03-22T19:39:26.467Z,15.70
2019-03-22T19:41:52.622Z,15.70
2019-03-22T19:44:18.778Z,15.70
2019-03-22T19:46:44.929Z,15.70
2019-03-22T19:49:11.080Z,15.70
2019-03-22T19:51:37.226Z,15.70
2019-03-22T19:54:03.372Z,15.70
2019-03-22T19:56:29.527Z,15.70
2019-03-22T19:58:55.693Z,15.70
2019-03-22T20:01:21.852Z,15.70
2019-03-22T20:03:48.812Z,15.70
2019-03-22T20:06:14.951Z,15.70
2019-03-22T20:08:41.104Z,15.70
2019-03-22T20:11:07.241Z,15.70
2019-03-22T20:13:33.394Z,15.70
2019-03-22T20:16:00.299Z,15.70
2019-03-22T20:18:26.452Z,15.70
2019-03-22T20:20:52.603Z,15.70
2019-03-22T20:23:18.926Z,15.70
2019-03-22T20:25:45.079Z,15.70
2019-03-22T20:28:11.252Z,15.70
2019-03-22T20:30:37.400Z,15.70
2019-03-22T20:33:03.556Z,15.70
2019-03-22T20:35:29.692Z,15.70
2019-03-22T20:37:55.843Z,15.70
2019-03-22T20:40:21.994Z,15.70
2019-03-22T20:42:48.144Z,15.70
2019-03-22T20:45:23.591Z,15.70
2019-03-22T20:47:41.252Z,15.70
2019-03-22T20:50:07.409Z,15.70
2019-03-22T20:52:34.084Z,15.70
2019-03-22T20:55:00.337Z,15.70
2019-03-22T20:57:26.423Z,15.70
2019-03-22T20:59:52.583Z,15.70
2019-03-22T21:02:18.728Z,15.70
2019-03-22T21:04:45.645Z,15.70
2019-03-22T21:07:11.827Z,15.70
2019-03-22T21:09:38.181Z,15.70
2019-03-22T21:12:04.489Z,15.70
2019-03-22T21:14:30.903Z,15.70
2019-03-22T21:16:57.592Z,15.70
2019-03-22T21:19:23.741Z,15.70
2019-03-22T21:21:49.897Z,15.70
2019-03-22T21:24:16.052Z,15.70
2019-03-22T21:26:42.199Z,15.70
2019-03-22T21:29:08.355Z,15.70
2019-03-22T21:31:34.499Z,15.70
2019-03-22T21:34:00.686Z,15.70
2019-03-22T21:36:26.851Z,15.70
2019-03-22T21:38:53.008Z,15.70
2019-03-22T21:41:19.165Z,15.70
2019-03-22T21:43:46.081Z,15.70
2019-03-22T21:46:12.243Z,15.70
2019-03-22T21:48:38.401Z,15.60
2019-03-22T21:51:04.549Z,15.70
2019-03-22T21:53:30.702Z,15.70
2019-03-22T21:55:56.845Z,15.60
2019-03-22T21:58:22.989Z,15.70
2019-03-22T22:00:49.138Z,15.60
2019-03-22T22:03:15.476Z,15.70
2019-03-22T22:05:47.896Z,15.60
2019-03-22T22:08:07.801Z,15.60
2019-03-22T22:10:33.973Z,15.70
2019-03-22T22:13:00.118Z,15.60
2019-03-22T22:15:27.022Z,15.70
2019-03-22T22:17:53.174Z,15.60
2019-03-22T22:20:28.392Z,15.70
2019-03-22T22:22:45.516Z,15.60
2019-03-22T22:25:13.526Z,15.70
2019-03-22T22:27:39.684Z,15.60
2019-03-22T22:30:05.849Z,15.60
2019-03-22T22:32:32.022Z,15.70
2019-03-22T22:34:58.165Z,15.60
2019-03-22T22:37:24.337Z,15.60
2019-03-22T22:39:50.488Z,15.60
2019-03-22T22:42:16.666Z,15.60
2019-03-22T22:44:42.812Z,15.60
2019-03-22T22:47:08.977Z,15.60
2019-03-22T22:49:35.132Z,15.60
2019-03-22T22:52:01.309Z,15.60
2019-03-22T22:54:27.527Z,15.60
2019-03-22T22:56:53.696Z,15.60
2019-03-22T22:59:19.851Z,15.60
2019-03-22T23:01:46.022Z,15.60
2019-03-22T23:04:12.181Z,15.60
2019-03-22T23:06:38.349Z,15.70
2019-03-22T23:09:04.507Z,15.60
2019-03-22T23:11:30.677Z,15.60
2019-03-22T23:13:56.861Z,15.60
2019-03-22T23:16:23.020Z,15.60
2019-03-22T23:18:49.169Z,15.60
2019-03-22T23:21:15.333Z,15.60
2019-03-22T23:23:41.477Z,15.60
2019-03-22T23:26:07.629Z,15.60
2019-03-22T23:28:33.777Z,15.60
2019-03-22T23:30:59.933Z,15.60
2019-03-22T23:33:26.131Z,15.60
2019-03-22T23:35:52.260Z,15.60
2019-03-22T23:38:18.408Z,15.60
2019-03-22T23:40:44.556Z,15.60
2019-03-22T23:43:10.698Z,15.60
2019-03-22T23:45:36.849Z,15.60
2019-03-22T23:48:03.004Z,15.60
2019-03-22T23:50:29.149Z,15.60
2019-03-22T23:52:55.307Z,15.60
2019-03-22T23:55:21.456Z,15.60
2019-03-22T23:57:47.604Z,15.60
